sensor_id;sensor_type;location;lat;lon;timestamp;P1;durP1;ratioP1;P2;durP2;ratioP2
9374;SDS011;4727;51.202;6.344;2022-09-09T00:07:49;4.20;;;1.83;;
9374;SDS011;4727;51.202;6.344;2022-09-09T00:10:26;2.13;;;2.03;;
9374;SDS011;4727;51.202;6.344;2022-09-09T00:15:30;2.70;;;2.50;;
9374;SDS011;4727;51.202;6.344;2022-09-09T00:18:03;4.50;;;4.10;;
9374;SDS011;4727;51.202;6.344;2022-09-09T00:23:29;6.10;;;5.67;;
9374;SDS011;4727;51.202;6.344;2022-09-09T00:31:25;8.60;;;7.60;;
9374;SDS011;4727;51.202;6.344;2022-09-09T00:33:53;8.50;;;7.80;;
9374;SDS011;4727;51.202;6.344;2022-09-09T00:36:24;7.17;;;6.67;;
9374;SDS011;4727;51.202;6.344;2022-09-09T00:38:52;6.40;;;6.00;;
9374;SDS011;4727;51.202;6.344;2022-09-09T00:41:23;5.63;;;5.17;;
9374;SDS011;4727;51.202;6.344;2022-09-09T00:55:41;7.10;;;6.40;;
9374;SDS011;4727;51.202;6.344;2022-09-09T00:58:15;8.50;;;6.43;;
9374;SDS011;4727;51.202;6.344;2022-09-09T01:00:42;7.00;;;6.40;;
9374;SDS011;4727;51.202;6.344;2022-09-09T01:03:14;8.37;;;6.50;;
9374;SDS011;4727;51.202;6.344;2022-09-09T01:06:01;6.57;;;5.90;;
9374;SDS011;4727;51.202;6.344;2022-09-09T01:11:26;7.73;;;6.93;;
9374;SDS011;4727;51.202;6.344;2022-09-09T01:17:00;8.57;;;7.47;;
9374;SDS011;4727;51.202;6.344;2022-09-09T01:27:52;7.40;;;6.77;;
9374;SDS011;4727;51.202;6.344;2022-09-09T01:30:21;6.53;;;6.00;;
9374;SDS011;4727;51.202;6.344;2022-09-09T01:32:49;6.67;;;6.20;;
9374;SDS011;4727;51.202;6.344;2022-09-09T01:37:46;5.00;;;4.60;;
9374;SDS011;4727;51.202;6.344;2022-09-09T01:40:12;4.67;;;3.57;;
9374;SDS011;4727;51.202;6.344;2022-09-09T01:42:37;6.07;;;4.07;;
9374;SDS011;4727;51.202;6.344;2022-09-09T01:45:03;3.90;;;3.20;;
9374;SDS011;4727;51.202;6.344;2022-09-09T01:47:29;3.37;;;3.07;;
9374;SDS011;4727;51.202;6.344;2022-09-09T01:49:55;4.37;;;3.53;;
9374;SDS011;4727;51.202;6.344;2022-09-09T01:52:21;5.13;;;2.83;;
9374;SDS011;4727;51.202;6.344;2022-09-09T01:54:46;3.27;;;2.97;;
9374;SDS011;4727;51.202;6.344;2022-09-09T01:57:21;3.10;;;2.90;;
9374;SDS011;4727;51.202;6.344;2022-09-09T02:00:09;5.40;;;3.00;;
9374;SDS011;4727;51.202;6.344;2022-09-09T02:02:45;2.93;;;2.70;;
9374;SDS011;4727;51.202;6.344;2022-09-09T02:05:35;3.87;;;2.47;;
9374;SDS011;4727;51.202;6.344;2022-09-09T02:08:06;3.07;;;2.40;;
9374;SDS011;4727;51.202;6.344;2022-09-09T02:13:07;2.67;;;2.47;;
9374;SDS011;4727;51.202;6.344;2022-09-09T02:18:11;3.00;;;2.30;;
9374;SDS011;4727;51.202;6.344;2022-09-09T02:20:40;2.40;;;2.30;;
9374;SDS011;4727;51.202;6.344;2022-09-09T02:23:07;2.90;;;2.70;;
9374;SDS011;4727;51.202;6.344;2022-09-09T02:25:35;5.60;;;3.03;;
9374;SDS011;4727;51.202;6.344;2022-09-09T02:28:02;5.23;;;3.60;;
9374;SDS011;4727;51.202;6.344;2022-09-09T02:30:31;4.70;;;3.73;;
9374;SDS011;4727;51.202;6.344;2022-09-09T02:32:59;7.00;;;5.40;;
9374;SDS011;4727;51.202;6.344;2022-09-09T02:35:27;5.00;;;4.60;;
9374;SDS011;4727;51.202;6.344;2022-09-09T02:37:56;5.50;;;4.23;;
9374;SDS011;4727;51.202;6.344;2022-09-09T02:40:24;5.37;;;4.87;;
9374;SDS011;4727;51.202;6.344;2022-09-09T02:42:50;5.50;;;4.97;;
9374;SDS011;4727;51.202;6.344;2022-09-09T02:45:19;5.67;;;5.13;;
9374;SDS011;4727;51.202;6.344;2022-09-09T02:47:58;6.53;;;5.97;;
9374;SDS011;4727;51.202;6.344;2022-09-09T02:50:37;6.97;;;5.83;;
9374;SDS011;4727;51.202;6.344;2022-09-09T02:56:00;9.27;;;8.40;;
9374;SDS011;4727;51.202;6.344;2022-09-09T02:58:30;10.03;;;8.63;;
9374;SDS011;4727;51.202;6.344;2022-09-09T03:00:57;9.67;;;8.87;;
9374;SDS011;4727;51.202;6.344;2022-09-09T03:03:26;8.67;;;7.80;;
9374;SDS011;4727;51.202;6.344;2022-09-09T03:05:52;9.90;;;9.03;;
9374;SDS011;4727;51.202;6.344;2022-09-09T03:08:17;9.17;;;8.27;;
9374;SDS011;4727;51.202;6.344;2022-09-09T03:10:43;8.90;;;8.07;;
9374;SDS011;4727;51.202;6.344;2022-09-09T03:13:09;8.73;;;7.97;;
9374;SDS011;4727;51.202;6.344;2022-09-09T03:15:37;10.67;;;8.00;;
9374;SDS011;4727;51.202;6.344;2022-09-09T03:18:03;9.40;;;8.43;;
9374;SDS011;4727;51.202;6.344;2022-09-09T03:20:29;8.63;;;7.83;;
9374;SDS011;4727;51.202;6.344;2022-09-09T03:22:55;10.23;;;9.13;;
9374;SDS011;4727;51.202;6.344;2022-09-09T03:25:22;11.00;;;9.83;;
9374;SDS011;4727;51.202;6.344;2022-09-09T03:27:51;11.87;;;10.77;;
9374;SDS011;4727;51.202;6.344;2022-09-09T03:30:23;12.27;;;11.17;;
9374;SDS011;4727;51.202;6.344;2022-09-09T03:32:50;13.07;;;11.97;;
9374;SDS011;4727;51.202;6.344;2022-09-09T03:35:16;14.77;;;13.57;;
9374;SDS011;4727;51.202;6.344;2022-09-09T03:37:42;16.73;;;15.23;;
9374;SDS011;4727;51.202;6.344;2022-09-09T03:40:07;16.17;;;14.57;;
9374;SDS011;4727;51.202;6.344;2022-09-09T03:42:34;16.30;;;14.80;;
9374;SDS011;4727;51.202;6.344;2022-09-09T03:45:02;15.53;;;14.23;;
9374;SDS011;4727;51.202;6.344;2022-09-09T03:47:28;16.13;;;14.63;;
9374;SDS011;4727;51.202;6.344;2022-09-09T03:49:54;17.33;;;15.83;;
9374;SDS011;4727;51.202;6.344;2022-09-09T03:52:20;18.57;;;17.07;;
9374;SDS011;4727;51.202;6.344;2022-09-09T03:54:46;18.37;;;16.87;;
9374;SDS011;4727;51.202;6.344;2022-09-09T03:57:12;19.30;;;17.50;;
9374;SDS011;4727;51.202;6.344;2022-09-09T03:59:41;18.83;;;17.13;;
9374;SDS011;4727;51.202;6.344;2022-09-09T04:02:07;17.87;;;15.47;;
9374;SDS011;4727;51.202;6.344;2022-09-09T04:04:34;15.77;;;14.17;;
9374;SDS011;4727;51.202;6.344;2022-09-09T04:06:59;16.80;;;15.40;;
9374;SDS011;4727;51.202;6.344;2022-09-09T04:09:25;14.17;;;12.83;;
9374;SDS011;4727;51.202;6.344;2022-09-09T04:11:51;12.47;;;10.97;;
9374;SDS011;4727;51.202;6.344;2022-09-09T04:14:18;11.17;;;9.80;;
9374;SDS011;4727;51.202;6.344;2022-09-09T04:16:44;7.57;;;6.80;;
9374;SDS011;4727;51.202;6.344;2022-09-09T04:19:09;9.63;;;6.80;;
9374;SDS011;4727;51.202;6.344;2022-09-09T04:21:37;9.90;;;6.93;;
9374;SDS011;4727;51.202;6.344;2022-09-09T04:24:05;13.77;;;11.47;;
9374;SDS011;4727;51.202;6.344;2022-09-09T04:26:32;7.53;;;5.33;;
9374;SDS011;4727;51.202;6.344;2022-09-09T04:28:58;5.80;;;4.87;;
9374;SDS011;4727;51.202;6.344;2022-09-09T04:31:23;9.17;;;4.50;;
9374;SDS011;4727;51.202;6.344;2022-09-09T04:33:49;9.40;;;4.33;;
9374;SDS011;4727;51.202;6.344;2022-09-09T04:36:15;8.40;;;4.33;;
9374;SDS011;4727;51.202;6.344;2022-09-09T04:38:43;4.50;;;3.90;;
9374;SDS011;4727;51.202;6.344;2022-09-09T04:41:09;4.07;;;3.67;;
9374;SDS011;4727;51.202;6.344;2022-09-09T04:43:36;7.87;;;3.77;;
9374;SDS011;4727;51.202;6.344;2022-09-09T04:46:02;8.00;;;3.83;;
9374;SDS011;4727;51.202;6.344;2022-09-09T04:48:28;9.23;;;4.00;;
9374;SDS011;4727;51.202;6.344;2022-09-09T04:50:58;7.23;;;3.77;;
9374;SDS011;4727;51.202;6.344;2022-09-09T04:53:29;9.30;;;3.57;;
9374;SDS011;4727;51.202;6.344;2022-09-09T04:56:02;6.53;;;3.93;;
9374;SDS011;4727;51.202;6.344;2022-09-09T04:58:30;8.63;;;4.03;;
9374;SDS011;4727;51.202;6.344;2022-09-09T05:01:02;5.90;;;3.50;;
9374;SDS011;4727;51.202;6.344;2022-09-09T05:03:31;4.50;;;2.97;;
9374;SDS011;4727;51.202;6.344;2022-09-09T05:06:30;6.57;;;3.33;;
9374;SDS011;4727;51.202;6.344;2022-09-09T05:08:49;8.03;;;3.50;;
9374;SDS011;4727;51.202;6.344;2022-09-09T05:13:51;8.77;;;3.97;;
9374;SDS011;4727;51.202;6.344;2022-09-09T05:16:17;5.13;;;3.20;;
9374;SDS011;4727;51.202;6.344;2022-09-09T05:18:44;6.03;;;3.53;;
9374;SDS011;4727;51.202;6.344;2022-09-09T05:21:14;6.10;;;3.70;;
9374;SDS011;4727;51.202;6.344;2022-09-09T05:23:41;8.00;;;5.13;;
9374;SDS011;4727;51.202;6.344;2022-09-09T05:26:08;7.13;;;6.23;;
9374;SDS011;4727;51.202;6.344;2022-09-09T05:28:37;8.50;;;7.60;;
9374;SDS011;4727;51.202;6.344;2022-09-09T05:31:03;10.00;;;9.00;;
9374;SDS011;4727;51.202;6.344;2022-09-09T05:33:32;11.70;;;10.37;;
9374;SDS011;4727;51.202;6.344;2022-09-09T05:36:00;14.73;;;13.20;;
9374;SDS011;4727;51.202;6.344;2022-09-09T05:38:33;16.03;;;14.63;;
9374;SDS011;4727;51.202;6.344;2022-09-09T05:41:00;14.87;;;13.47;;
9374;SDS011;4727;51.202;6.344;2022-09-09T05:43:27;12.70;;;10.00;;
9374;SDS011;4727;51.202;6.344;2022-09-09T05:46:04;11.97;;;10.77;;
9374;SDS011;4727;51.202;6.344;2022-09-09T05:48:34;11.63;;;10.23;;
9374;SDS011;4727;51.202;6.344;2022-09-09T05:51:02;11.67;;;10.50;;
9374;SDS011;4727;51.202;6.344;2022-09-09T05:53:29;10.07;;;9.10;;
9374;SDS011;4727;51.202;6.344;2022-09-09T05:56:06;12.57;;;11.37;;
9374;SDS011;4727;51.202;6.344;2022-09-09T05:58:42;13.43;;;12.20;;
9374;SDS011;4727;51.202;6.344;2022-09-09T06:01:13;14.80;;;13.47;;
9374;SDS011;4727;51.202;6.344;2022-09-09T06:03:41;11.77;;;10.53;;
9374;SDS011;4727;51.202;6.344;2022-09-09T06:06:09;10.97;;;9.07;;
9374;SDS011;4727;51.202;6.344;2022-09-09T06:08:43;9.00;;;8.20;;
9374;SDS011;4727;51.202;6.344;2022-09-09T06:11:14;9.43;;;6.60;;
9374;SDS011;4727;51.202;6.344;2022-09-09T06:13:41;8.83;;;7.03;;
9374;SDS011;4727;51.202;6.344;2022-09-09T06:16:12;9.43;;;6.80;;
9374;SDS011;4727;51.202;6.344;2022-09-09T06:18:39;7.30;;;6.57;;
9374;SDS011;4727;51.202;6.344;2022-09-09T06:21:05;6.43;;;5.67;;
9374;SDS011;4727;51.202;6.344;2022-09-09T06:23:34;9.13;;;6.00;;
9374;SDS011;4727;51.202;6.344;2022-09-09T06:28:42;8.70;;;6.20;;
9374;SDS011;4727;51.202;6.344;2022-09-09T06:31:11;10.67;;;8.57;;
9374;SDS011;4727;51.202;6.344;2022-09-09T06:33:39;10.50;;;7.00;;
9374;SDS011;4727;51.202;6.344;2022-09-09T06:36:13;8.13;;;6.47;;
9374;SDS011;4727;51.202;6.344;2022-09-09T06:38:43;8.87;;;7.33;;
9374;SDS011;4727;51.202;6.344;2022-09-09T06:41:10;8.67;;;5.90;;
9374;SDS011;4727;51.202;6.344;2022-09-09T06:43:37;7.03;;;5.50;;
9374;SDS011;4727;51.202;6.344;2022-09-09T06:46:10;5.23;;;4.83;;
9374;SDS011;4727;51.202;6.344;2022-09-09T06:48:40;9.93;;;5.33;;
9374;SDS011;4727;51.202;6.344;2022-09-09T06:51:08;7.07;;;4.57;;
9374;SDS011;4727;51.202;6.344;2022-09-09T06:53:36;8.63;;;5.10;;
9374;SDS011;4727;51.202;6.344;2022-09-09T06:56:26;7.80;;;3.93;;
9374;SDS011;4727;51.202;6.344;2022-09-09T06:58:50;7.47;;;3.97;;
9374;SDS011;4727;51.202;6.344;2022-09-09T07:01:18;7.93;;;3.53;;
9374;SDS011;4727;51.202;6.344;2022-09-09T07:03:49;11.30;;;3.90;;
9374;SDS011;4727;51.202;6.344;2022-09-09T07:06:17;6.30;;;3.07;;
9374;SDS011;4727;51.202;6.344;2022-09-09T07:11:18;7.20;;;3.10;;
9374;SDS011;4727;51.202;6.344;2022-09-09T07:13:45;5.00;;;2.87;;
9374;SDS011;4727;51.202;6.344;2022-09-09T07:16:12;4.17;;;2.63;;
9374;SDS011;4727;51.202;6.344;2022-09-09T07:18:39;4.00;;;2.67;;
9374;SDS011;4727;51.202;6.344;2022-09-09T07:21:06;7.70;;;3.10;;
9374;SDS011;4727;51.202;6.344;2022-09-09T07:23:33;6.00;;;2.60;;
9374;SDS011;4727;51.202;6.344;2022-09-09T07:26:00;5.53;;;2.50;;
9374;SDS011;4727;51.202;6.344;2022-09-09T07:28:27;5.70;;;2.50;;
9374;SDS011;4727;51.202;6.344;2022-09-09T07:31:00;6.00;;;2.60;;
9374;SDS011;4727;51.202;6.344;2022-09-09T07:33:27;5.30;;;2.57;;
9374;SDS011;4727;51.202;6.344;2022-09-09T07:36:01;5.03;;;2.60;;
9374;SDS011;4727;51.202;6.344;2022-09-09T07:38:32;5.20;;;2.50;;
9374;SDS011;4727;51.202;6.344;2022-09-09T07:41:05;5.10;;;2.27;;
9374;SDS011;4727;51.202;6.344;2022-09-09T07:43:36;7.73;;;2.77;;
9374;SDS011;4727;51.202;6.344;2022-09-09T07:46:03;5.63;;;3.10;;
9374;SDS011;4727;51.202;6.344;2022-09-09T07:48:29;8.50;;;2.80;;
9374;SDS011;4727;51.202;6.344;2022-09-09T07:51:05;6.07;;;3.10;;
9374;SDS011;4727;51.202;6.344;2022-09-09T07:53:32;6.43;;;2.80;;
9374;SDS011;4727;51.202;6.344;2022-09-09T07:56:03;7.27;;;2.47;;
9374;SDS011;4727;51.202;6.344;2022-09-09T07:58:30;5.17;;;2.60;;
9374;SDS011;4727;51.202;6.344;2022-09-09T08:00:55;7.27;;;2.87;;
9374;SDS011;4727;51.202;6.344;2022-09-09T08:03:22;7.73;;;2.53;;
9374;SDS011;4727;51.202;6.344;2022-09-09T08:05:48;7.33;;;3.00;;
9374;SDS011;4727;51.202;6.344;2022-09-09T08:08:14;4.33;;;2.70;;
9374;SDS011;4727;51.202;6.344;2022-09-09T08:10:41;7.30;;;2.90;;
9374;SDS011;4727;51.202;6.344;2022-09-09T08:13:08;8.07;;;3.50;;
9374;SDS011;4727;51.202;6.344;2022-09-09T08:15:34;6.03;;;2.70;;
9374;SDS011;4727;51.202;6.344;2022-09-09T08:17:59;5.20;;;2.30;;
9374;SDS011;4727;51.202;6.344;2022-09-09T08:20:25;5.33;;;2.30;;
9374;SDS011;4727;51.202;6.344;2022-09-09T08:22:50;5.13;;;2.40;;
9374;SDS011;4727;51.202;6.344;2022-09-09T08:25:16;7.13;;;2.50;;
9374;SDS011;4727;51.202;6.344;2022-09-09T08:27:41;6.83;;;3.20;;
9374;SDS011;4727;51.202;6.344;2022-09-09T08:30:07;6.13;;;2.50;;
9374;SDS011;4727;51.202;6.344;2022-09-09T08:32:34;4.60;;;2.60;;
9374;SDS011;4727;51.202;6.344;2022-09-09T08:35:00;5.43;;;2.00;;
9374;SDS011;4727;51.202;6.344;2022-09-09T08:37:25;4.00;;;2.07;;
9374;SDS011;4727;51.202;6.344;2022-09-09T08:39:51;4.53;;;2.43;;
9374;SDS011;4727;51.202;6.344;2022-09-09T08:42:23;3.83;;;1.90;;
9374;SDS011;4727;51.202;6.344;2022-09-09T08:45:00;5.50;;;2.13;;
9374;SDS011;4727;51.202;6.344;2022-09-09T08:50:38;3.90;;;2.20;;
9374;SDS011;4727;51.202;6.344;2022-09-09T08:53:16;4.33;;;2.30;;
9374;SDS011;4727;51.202;6.344;2022-09-09T08:58:25;6.23;;;2.13;;
9374;SDS011;4727;51.202;6.344;2022-09-09T09:09:11;5.67;;;2.03;;
9374;SDS011;4727;51.202;6.344;2022-09-09T09:11:40;5.10;;;2.13;;
9374;SDS011;4727;51.202;6.344;2022-09-09T09:14:15;4.73;;;2.53;;
9374;SDS011;4727;51.202;6.344;2022-09-09T09:16:57;3.57;;;1.87;;
9374;SDS011;4727;51.202;6.344;2022-09-09T09:19:32;3.20;;;2.20;;
9374;SDS011;4727;51.202;6.344;2022-09-09T09:22:02;4.80;;;2.30;;
9374;SDS011;4727;51.202;6.344;2022-09-09T09:27:58;2.73;;;1.93;;
9374;SDS011;4727;51.202;6.344;2022-09-09T09:30:26;4.00;;;1.90;;
9374;SDS011;4727;51.202;6.344;2022-09-09T09:33:00;3.80;;;1.73;;
9374;SDS011;4727;51.202;6.344;2022-09-09T09:35:39;4.30;;;1.90;;
9374;SDS011;4727;51.202;6.344;2022-09-09T09:38:16;3.73;;;1.70;;
9374;SDS011;4727;51.202;6.344;2022-09-09T09:40:53;3.37;;;1.80;;
9374;SDS011;4727;51.202;6.344;2022-09-09T09:43:29;4.20;;;1.73;;
9374;SDS011;4727;51.202;6.344;2022-09-09T09:45:59;5.03;;;1.93;;
9374;SDS011;4727;51.202;6.344;2022-09-09T09:48:25;4.30;;;2.33;;
9374;SDS011;4727;51.202;6.344;2022-09-09T09:50:53;3.60;;;1.60;;
9374;SDS011;4727;51.202;6.344;2022-09-09T09:58:26;2.93;;;1.60;;
9374;SDS011;4727;51.202;6.344;2022-09-09T10:00:57;2.60;;;1.90;;
9374;SDS011;4727;51.202;6.344;2022-09-09T10:03:28;3.50;;;1.90;;
9374;SDS011;4727;51.202;6.344;2022-09-09T10:05:55;6.17;;;1.53;;
9374;SDS011;4727;51.202;6.344;2022-09-09T10:08:24;2.83;;;2.00;;
9374;SDS011;4727;51.202;6.344;2022-09-09T10:16:48;3.87;;;1.80;;
9374;SDS011;4727;51.202;6.344;2022-09-09T10:19:21;3.27;;;1.97;;
9374;SDS011;4727;51.202;6.344;2022-09-09T10:32:57;4.87;;;1.80;;
9374;SDS011;4727;51.202;6.344;2022-09-09T10:35:31;4.50;;;1.97;;
9374;SDS011;4727;51.202;6.344;2022-09-09T10:40:42;2.10;;;1.87;;
9374;SDS011;4727;51.202;6.344;2022-09-09T10:51:23;5.77;;;1.73;;
9374;SDS011;4727;51.202;6.344;2022-09-09T10:56:57;2.50;;;1.63;;
9374;SDS011;4727;51.202;6.344;2022-09-09T10:59:29;2.07;;;1.70;;
9374;SDS011;4727;51.202;6.344;2022-09-09T11:04:37;5.03;;;1.77;;
9374;SDS011;4727;51.202;6.344;2022-09-09T11:07:12;3.07;;;2.00;;
9374;SDS011;4727;51.202;6.344;2022-09-09T11:09:47;4.10;;;1.77;;
9374;SDS011;4727;51.202;6.344;2022-09-09T11:12:22;3.33;;;1.83;;
9374;SDS011;4727;51.202;6.344;2022-09-09T11:15:06;1.73;;;1.60;;
9374;SDS011;4727;51.202;6.344;2022-09-09T11:17:45;3.73;;;1.30;;
9374;SDS011;4727;51.202;6.344;2022-09-09T11:20:14;1.73;;;1.37;;
9374;SDS011;4727;51.202;6.344;2022-09-09T11:22:45;2.07;;;1.30;;
9374;SDS011;4727;51.202;6.344;2022-09-09T11:25:17;2.20;;;1.30;;
9374;SDS011;4727;51.202;6.344;2022-09-09T11:33:46;2.77;;;1.27;;
9374;SDS011;4727;51.202;6.344;2022-09-09T11:44:39;4.40;;;1.77;;
9374;SDS011;4727;51.202;6.344;2022-09-09T11:47:16;3.27;;;1.30;;
9374;SDS011;4727;51.202;6.344;2022-09-09T11:49:47;2.23;;;1.43;;
9374;SDS011;4727;51.202;6.344;2022-09-09T11:52:23;4.43;;;1.57;;
9374;SDS011;4727;51.202;6.344;2022-09-09T11:55:00;3.93;;;1.90;;
9374;SDS011;4727;51.202;6.344;2022-09-09T11:57:56;3.67;;;1.43;;
9374;SDS011;4727;51.202;6.344;2022-09-09T12:03:02;3.57;;;1.67;;
9374;SDS011;4727;51.202;6.344;2022-09-09T12:05:39;2.27;;;1.30;;
9374;SDS011;4727;51.202;6.344;2022-09-09T12:08:11;3.83;;;1.93;;
9374;SDS011;4727;51.202;6.344;2022-09-09T12:10:52;4.97;;;2.10;;
9374;SDS011;4727;51.202;6.344;2022-09-09T12:13:21;2.30;;;1.83;;
9374;SDS011;4727;51.202;6.344;2022-09-09T12:15:53;3.43;;;2.10;;
9374;SDS011;4727;51.202;6.344;2022-09-09T12:18:33;4.00;;;2.23;;
9374;SDS011;4727;51.202;6.344;2022-09-09T12:21:30;3.37;;;1.97;;
9374;SDS011;4727;51.202;6.344;2022-09-09T12:24:11;4.10;;;2.20;;
9374;SDS011;4727;51.202;6.344;2022-09-09T12:26:46;3.73;;;2.47;;
9374;SDS011;4727;51.202;6.344;2022-09-09T12:34:42;3.73;;;2.60;;
9374;SDS011;4727;51.202;6.344;2022-09-09T12:40:04;4.90;;;3.00;;
9374;SDS011;4727;51.202;6.344;2022-09-09T12:42:50;5.30;;;2.40;;
9374;SDS011;4727;51.202;6.344;2022-09-09T12:45:17;2.50;;;2.17;;
9374;SDS011;4727;51.202;6.344;2022-09-09T12:48:07;3.80;;;2.30;;
9374;SDS011;4727;51.202;6.344;2022-09-09T12:50:54;5.17;;;2.43;;
9374;SDS011;4727;51.202;6.344;2022-09-09T12:56:37;4.27;;;2.23;;
9374;SDS011;4727;51.202;6.344;2022-09-09T12:58:45;3.20;;;2.23;;
9374;SDS011;4727;51.202;6.344;2022-09-09T13:01:21;3.53;;;1.87;;
9374;SDS011;4727;51.202;6.344;2022-09-09T13:03:47;2.13;;;1.70;;
9374;SDS011;4727;51.202;6.344;2022-09-09T13:06:17;2.40;;;1.83;;
9374;SDS011;4727;51.202;6.344;2022-09-09T13:08:46;4.10;;;1.90;;
9374;SDS011;4727;51.202;6.344;2022-09-09T13:11:16;4.40;;;2.57;;
9374;SDS011;4727;51.202;6.344;2022-09-09T13:13:56;7.63;;;2.47;;
9374;SDS011;4727;51.202;6.344;2022-09-09T13:16:27;2.97;;;2.10;;
9374;SDS011;4727;51.202;6.344;2022-09-09T13:19:10;3.40;;;1.90;;
9374;SDS011;4727;51.202;6.344;2022-09-09T13:21:40;4.27;;;2.13;;
9374;SDS011;4727;51.202;6.344;2022-09-09T13:27:00;4.07;;;2.30;;
9374;SDS011;4727;51.202;6.344;2022-09-09T13:29:27;3.27;;;2.40;;
9374;SDS011;4727;51.202;6.344;2022-09-09T13:32:03;4.43;;;2.30;;
9374;SDS011;4727;51.202;6.344;2022-09-09T13:34:31;3.20;;;2.30;;
9374;SDS011;4727;51.202;6.344;2022-09-09T13:37:02;5.10;;;2.83;;
9374;SDS011;4727;51.202;6.344;2022-09-09T13:39:50;2.50;;;1.97;;
9374;SDS011;4727;51.202;6.344;2022-09-09T13:42:22;4.47;;;2.37;;
9374;SDS011;4727;51.202;6.344;2022-09-09T13:44:55;2.63;;;1.87;;
9374;SDS011;4727;51.202;6.344;2022-09-09T13:47:28;2.73;;;1.43;;
9374;SDS011;4727;51.202;6.344;2022-09-09T13:52:48;2.13;;;1.80;;
9374;SDS011;4727;51.202;6.344;2022-09-09T13:55:18;2.13;;;1.13;;
9374;SDS011;4727;51.202;6.344;2022-09-09T13:57:56;2.43;;;1.10;;
9374;SDS011;4727;51.202;6.344;2022-09-09T14:00:23;1.07;;;0.97;;
9374;SDS011;4727;51.202;6.344;2022-09-09T14:02:50;3.67;;;0.87;;
9374;SDS011;4727;51.202;6.344;2022-09-09T14:05:18;2.20;;;0.90;;
9374;SDS011;4727;51.202;6.344;2022-09-09T14:07:45;1.27;;;0.93;;
9374;SDS011;4727;51.202;6.344;2022-09-09T14:10:11;3.80;;;1.10;;
9374;SDS011;4727;51.202;6.344;2022-09-09T14:12:37;1.47;;;1.17;;
9374;SDS011;4727;51.202;6.344;2022-09-09T14:15:03;1.20;;;1.10;;
9374;SDS011;4727;51.202;6.344;2022-09-09T14:17:30;2.80;;;1.20;;
9374;SDS011;4727;51.202;6.344;2022-09-09T14:19:56;2.60;;;1.60;;
9374;SDS011;4727;51.202;6.344;2022-09-09T14:22:22;1.10;;;1.00;;
9374;SDS011;4727;51.202;6.344;2022-09-09T14:24:48;1.00;;;0.90;;
9374;SDS011;4727;51.202;6.344;2022-09-09T14:27:14;1.20;;;1.10;;
9374;SDS011;4727;51.202;6.344;2022-09-09T14:29:41;1.87;;;1.03;;
9374;SDS011;4727;51.202;6.344;2022-09-09T14:32:08;0.73;;;0.73;;
9374;SDS011;4727;51.202;6.344;2022-09-09T14:34:34;1.00;;;0.90;;
9374;SDS011;4727;51.202;6.344;2022-09-09T14:37:00;4.00;;;1.10;;
9374;SDS011;4727;51.202;6.344;2022-09-09T14:39:26;2.03;;;0.93;;
9374;SDS011;4727;51.202;6.344;2022-09-09T14:41:52;1.10;;;1.00;;
9374;SDS011;4727;51.202;6.344;2022-09-09T14:44:17;2.10;;;1.23;;
9374;SDS011;4727;51.202;6.344;2022-09-09T14:46:43;1.37;;;0.77;;
9374;SDS011;4727;51.202;6.344;2022-09-09T14:49:09;1.53;;;1.33;;
9374;SDS011;4727;51.202;6.344;2022-09-09T14:51:35;1.33;;;0.70;;
9374;SDS011;4727;51.202;6.344;2022-09-09T14:54:01;1.00;;;0.80;;
9374;SDS011;4727;51.202;6.344;2022-09-09T14:56:28;2.43;;;0.90;;
9374;SDS011;4727;51.202;6.344;2022-09-09T14:58:57;2.17;;;1.03;;
9374;SDS011;4727;51.202;6.344;2022-09-09T15:01:25;2.20;;;1.00;;
9374;SDS011;4727;51.202;6.344;2022-09-09T15:03:55;0.90;;;0.77;;
9374;SDS011;4727;51.202;6.344;2022-09-09T15:06:26;2.77;;;1.00;;
9374;SDS011;4727;51.202;6.344;2022-09-09T15:08:54;0.70;;;0.70;;
9374;SDS011;4727;51.202;6.344;2022-09-09T15:11:23;1.33;;;1.23;;
9374;SDS011;4727;51.202;6.344;2022-09-09T15:13:52;1.73;;;1.43;;
9374;SDS011;4727;51.202;6.344;2022-09-09T15:16:19;2.07;;;1.80;;
9374;SDS011;4727;51.202;6.344;2022-09-09T15:18:46;3.07;;;1.63;;
9374;SDS011;4727;51.202;6.344;2022-09-09T15:21:16;1.77;;;1.23;;
9374;SDS011;4727;51.202;6.344;2022-09-09T15:23:46;2.00;;;1.60;;
9374;SDS011;4727;51.202;6.344;2022-09-09T15:26:16;2.10;;;1.53;;
9374;SDS011;4727;51.202;6.344;2022-09-09T15:28:43;1.67;;;1.37;;
9374;SDS011;4727;51.202;6.344;2022-09-09T15:31:11;3.67;;;1.80;;
9374;SDS011;4727;51.202;6.344;2022-09-09T15:36:18;2.13;;;1.93;;
9374;SDS011;4727;51.202;6.344;2022-09-09T15:38:48;2.77;;;1.93;;
9374;SDS011;4727;51.202;6.344;2022-09-09T15:41:14;3.03;;;1.90;;
9374;SDS011;4727;51.202;6.344;2022-09-09T15:43:45;3.60;;;1.83;;
9374;SDS011;4727;51.202;6.344;2022-09-09T15:49:07;3.27;;;2.17;;
9374;SDS011;4727;51.202;6.344;2022-09-09T15:51:43;4.63;;;2.03;;
9374;SDS011;4727;51.202;6.344;2022-09-09T15:54:14;2.57;;;2.13;;
9374;SDS011;4727;51.202;6.344;2022-09-09T15:56:45;3.70;;;2.60;;
9374;SDS011;4727;51.202;6.344;2022-09-09T15:59:13;4.93;;;2.87;;
9374;SDS011;4727;51.202;6.344;2022-09-09T16:01:39;2.50;;;2.30;;
9374;SDS011;4727;51.202;6.344;2022-09-09T16:04:07;4.13;;;2.33;;
9374;SDS011;4727;51.202;6.344;2022-09-09T16:06:33;3.10;;;1.93;;
9374;SDS011;4727;51.202;6.344;2022-09-09T16:08:59;5.43;;;2.07;;
9374;SDS011;4727;51.202;6.344;2022-09-09T16:11:28;3.43;;;2.20;;
9374;SDS011;4727;51.202;6.344;2022-09-09T16:13:56;4.40;;;2.30;;
9374;SDS011;4727;51.202;6.344;2022-09-09T16:16:24;3.93;;;2.17;;
9374;SDS011;4727;51.202;6.344;2022-09-09T16:18:53;2.37;;;1.77;;
9374;SDS011;4727;51.202;6.344;2022-09-09T16:21:24;4.17;;;2.40;;
9374;SDS011;4727;51.202;6.344;2022-09-09T16:23:54;5.03;;;2.13;;
9374;SDS011;4727;51.202;6.344;2022-09-09T16:26:20;4.17;;;2.10;;
9374;SDS011;4727;51.202;6.344;2022-09-09T16:28:47;2.53;;;2.13;;
9374;SDS011;4727;51.202;6.344;2022-09-09T16:31:18;3.30;;;2.17;;
9374;SDS011;4727;51.202;6.344;2022-09-09T16:33:45;3.10;;;2.50;;
9374;SDS011;4727;51.202;6.344;2022-09-09T16:36:14;4.27;;;2.40;;
9374;SDS011;4727;51.202;6.344;2022-09-09T16:38:41;4.07;;;2.53;;
9374;SDS011;4727;51.202;6.344;2022-09-09T16:41:08;4.17;;;2.50;;
9374;SDS011;4727;51.202;6.344;2022-09-09T16:43:35;4.73;;;2.60;;
9374;SDS011;4727;51.202;6.344;2022-09-09T16:46:02;3.83;;;2.60;;
9374;SDS011;4727;51.202;6.344;2022-09-09T16:48:32;4.30;;;3.07;;
9374;SDS011;4727;51.202;6.344;2022-09-09T16:51:08;5.23;;;3.77;;
9374;SDS011;4727;51.202;6.344;2022-09-09T16:53:39;4.87;;;3.00;;
9374;SDS011;4727;51.202;6.344;2022-09-09T16:56:08;4.43;;;2.80;;
9374;SDS011;4727;51.202;6.344;2022-09-09T16:58:35;8.23;;;3.30;;
9374;SDS011;4727;51.202;6.344;2022-09-09T17:01:01;3.90;;;2.70;;
9374;SDS011;4727;51.202;6.344;2022-09-09T17:03:31;4.73;;;3.10;;
9374;SDS011;4727;51.202;6.344;2022-09-09T17:05:57;4.40;;;2.87;;
9374;SDS011;4727;51.202;6.344;2022-09-09T17:08:27;4.73;;;2.90;;
9374;SDS011;4727;51.202;6.344;2022-09-09T17:10:56;5.83;;;2.60;;
9374;SDS011;4727;51.202;6.344;2022-09-09T17:13:23;3.37;;;2.23;;
9374;SDS011;4727;51.202;6.344;2022-09-09T17:15:50;4.73;;;2.70;;
9374;SDS011;4727;51.202;6.344;2022-09-09T17:18:16;6.30;;;2.63;;
9374;SDS011;4727;51.202;6.344;2022-09-09T17:20:42;3.33;;;2.47;;
9374;SDS011;4727;51.202;6.344;2022-09-09T17:23:09;6.10;;;3.00;;
9374;SDS011;4727;51.202;6.344;2022-09-09T17:25:36;3.77;;;2.50;;
9374;SDS011;4727;51.202;6.344;2022-09-09T17:28:03;3.47;;;2.70;;
9374;SDS011;4727;51.202;6.344;2022-09-09T17:30:38;4.07;;;2.40;;
9374;SDS011;4727;51.202;6.344;2022-09-09T17:33:04;3.23;;;2.53;;
9374;SDS011;4727;51.202;6.344;2022-09-09T17:35:31;3.77;;;2.67;;
9374;SDS011;4727;51.202;6.344;2022-09-09T17:37:58;4.37;;;2.77;;
9374;SDS011;4727;51.202;6.344;2022-09-09T17:40:24;4.57;;;3.17;;
9374;SDS011;4727;51.202;6.344;2022-09-09T17:42:49;3.60;;;3.00;;
9374;SDS011;4727;51.202;6.344;2022-09-09T17:45:15;6.53;;;2.93;;
9374;SDS011;4727;51.202;6.344;2022-09-09T17:47:41;3.90;;;2.87;;
9374;SDS011;4727;51.202;6.344;2022-09-09T17:50:08;3.37;;;2.50;;
9374;SDS011;4727;51.202;6.344;2022-09-09T17:52:36;4.50;;;2.60;;
9374;SDS011;4727;51.202;6.344;2022-09-09T17:55:02;4.87;;;2.40;;
9374;SDS011;4727;51.202;6.344;2022-09-09T17:57:28;5.07;;;2.80;;
9374;SDS011;4727;51.202;6.344;2022-09-09T17:59:54;3.93;;;2.90;;
9374;SDS011;4727;51.202;6.344;2022-09-09T18:02:20;3.77;;;2.83;;
9374;SDS011;4727;51.202;6.344;2022-09-09T18:04:45;3.63;;;2.93;;